Time;durP1;ratioP1;P1;durP2;ratioP2;P2;SDS_P1;SDS_P2;PMS_P1;PMS_P2;Temp;Humidity;BMP_temperature;BMP_pressure;BME280_temperature;BME280_humidity;BME280_pressure;Samples;Min_cycle;Max_cycle;Signal;HPM_P1;HPM_P2
2022/04/23 00:01:34;;;;;;;13.65;9.75;;;13.20;88.60;;;;;;5072950;28;20473;-80
2022/04/23 00:04:00;;;;;;;15.55;9.55;;;13.20;89.60;;;;;;5074096;28;20032;-80
2022/04/23 00:06:26;;;;;;;17.20;9.70;;;13.20;89.20;;;;;;5074435;28;20028;-80
2022/04/23 00:08:51;;;;;;;13.48;9.07;;;13.20;89.60;;;;;;5074238;28;20025;-81
2022/04/23 00:11:17;;;;;;;15.30;9.10;;;13.10;89.80;;;;;;5073502;28;20047;-80
2022/04/23 00:13:43;;;;;;;17.05;10.02;;;13.10;90.00;;;;;;5073831;28;20025;-80
2022/04/23 00:16:09;;;;;;;18.23;10.32;;;13.10;89.80;;;;;;5073668;28;20106;-80
2022/04/23 00:18:35;;;;;;;15.10;9.73;;;13.10;90.00;;;;;;5074017;28;20028;-80
2022/04/23 00:21:00;;;;;;;17.13;9.80;;;13.10;90.10;;;;;;5074099;28;20039;-80
2022/04/23 00:23:27;;;;;;;13.27;9.00;;;13.10;90.50;;;;;;5074597;28;20036;-81
2022/04/23 00:25:54;;;;;;;19.10;9.63;;;13.10;90.50;;;;;;5074272;28;20024;-83
2022/04/23 00:28:20;;;;;;;15.07;9.30;;;13.10;90.60;;;;;;5073152;28;20028;-82
2022/04/23 00:30:45;;;;;;;16.38;10.10;;;13.00;90.70;;;;;;5075047;28;20150;-82
2022/04/23 00:33:11;;;;;;;18.70;10.65;;;13.00;90.90;;;;;;5073748;28;20065;-82
2022/04/23 00:35:37;;;;;;;16.30;9.57;;;13.00;90.90;;;;;;5073903;28;20484;-82
2022/04/23 00:38:05;;;;;;;16.17;10.25;;;13.00;90.90;;;;;;5073666;28;20030;-82
2022/04/23 00:40:31;;;;;;;15.02;9.63;;;12.90;91.10;;;;;;5073408;28;20119;-81
2022/04/23 00:42:58;;;;;;;16.77;10.35;;;12.90;91.00;;;;;;5073561;28;20142;-81
2022/04/23 00:45:28;;;;;;;16.35;9.77;;;13.00;91.40;;;;;;5074069;28;20016;-81
2022/04/23 00:47:54;;;;;;;15.98;10.13;;;12.90;91.70;;;;;;5074401;28;20028;-82
2022/04/23 00:50:21;;;;;;;16.65;10.52;;;12.90;91.70;;;;;;5073960;28;20054;-82
2022/04/23 00:53:02;;;;;;;15.02;9.70;;;12.80;91.70;;;;;;5073696;28;20094;-82
2022/04/23 00:55:31;;;;;;;17.30;10.23;;;12.80;91.90;;;;;;5072858;28;20032;-81
2022/04/23 00:57:58;;;;;;;14.95;9.48;;;12.70;92.10;;;;;;5073281;28;20052;-82
2022/04/23 01:00:25;;;;;;;15.38;10.20;;;12.70;92.60;;;;;;5073099;28;20024;-82
2022/04/23 01:02:53;;;;;;;18.25;10.38;;;12.60;92.90;;;;;;5074504;28;20032;-83
2022/04/23 01:05:19;;;;;;;16.33;10.13;;;12.60;92.90;;;;;;5073836;28;20048;-82
2022/04/23 01:07:45;;;;;;;19.63;10.70;;;12.50;93.20;;;;;;5073336;28;20468;-82
2022/04/23 01:10:11;;;;;;;17.10;10.90;;;12.50;93.40;;;;;;5073830;28;20036;-80
2022/04/23 01:12:38;;;;;;;16.42;10.40;;;12.40;93.40;;;;;;5072368;28;20373;-81
2022/04/23 01:15:07;;;;;;;17.15;10.73;;;12.40;93.60;;;;;;5072761;28;20028;-81
2022/04/23 01:17:33;;;;;;;18.40;10.93;;;12.30;93.70;;;;;;5072818;28;20033;-81
2022/04/23 01:20:04;;;;;;;17.38;11.48;;;12.30;94.00;;;;;;5073049;28;20043;-81
2022/04/23 01:22:30;;;;;;;19.65;11.80;;;12.30;94.30;;;;;;5072175;28;20462;-80
2022/04/23 01:24:57;;;;;;;17.13;11.40;;;12.20;94.40;;;;;;5073608;28;20035;-80
2022/04/23 01:27:30;;;;;;;18.77;11.15;;;12.20;94.40;;;;;;5071883;28;20067;-81
2022/04/23 01:29:56;;;;;;;17.92;11.05;;;12.10;94.80;;;;;;5073940;28;20025;-81
2022/04/23 01:32:22;;;;;;;18.38;11.23;;;12.10;95.00;;;;;;5071899;28;20025;-81
2022/04/23 01:34:49;;;;;;;17.00;10.90;;;12.10;95.10;;;;;;5073081;28;20040;-81
2022/04/23 01:37:17;;;;;;;17.23;10.43;;;12.00;95.30;;;;;;5072196;28;20032;-79
2022/04/23 01:39:44;;;;;;;17.45;11.00;;;12.00;95.50;;;;;;5073873;28;20023;-80
2022/04/23 01:42:10;;;;;;;19.40;11.15;;;12.00;95.60;;;;;;5072317;28;20028;-80
2022/04/23 01:44:35;;;;;;;16.95;10.93;;;12.00;95.80;;;;;;5074073;28;20035;-79
2022/04/23 01:47:01;;;;;;;16.42;10.38;;;12.00;96.00;;;;;;5072664;28;20029;-80
2022/04/23 01:49:27;;;;;;;17.42;11.10;;;12.00;95.90;;;;;;5072209;28;20081;-80
2022/04/23 01:51:53;;;;;;;17.15;11.38;;;12.00;95.90;;;;;;5072770;28;20024;-80
2022/04/23 01:54:18;;;;;;;16.25;11.00;;;11.90;96.20;;;;;;5072413;28;20126;-81
2022/04/23 01:56:44;;;;;;;19.33;11.65;;;11.90;96.50;;;;;;5072761;28;20032;-81
2022/04/23 01:59:09;;;;;;;18.73;11.38;;;11.90;96.70;;;;;;5072078;28;20101;-81
2022/04/23 02:01:36;;;;;;;17.10;10.80;;;11.80;97.00;;;;;;5072329;28;20058;-81
2022/04/23 02:04:03;;;;;;;18.55;11.27;;;11.80;97.30;;;;;;5072780;28;20046;-81
2022/04/23 02:06:29;;;;;;;19.05;11.13;;;11.80;97.30;;;;;;5073420;28;20047;-81
2022/04/23 02:08:56;;;;;;;18.40;11.30;;;11.70;97.50;;;;;;5072514;28;20027;-82
2022/04/23 02:11:22;;;;;;;18.73;11.70;;;11.70;97.80;;;;;;5071954;28;20024;-81
2022/04/23 02:13:47;;;;;;;16.98;11.07;;;11.60;97.60;;;;;;5072330;28;20477;-82
2022/04/23 02:16:13;;;;;;;17.33;11.05;;;11.60;98.00;;;;;;5071685;28;20071;-81
2022/04/23 02:18:39;;;;;;;22.00;11.85;;;11.60;98.20;;;;;;5072539;28;20032;-81
2022/04/23 02:21:05;;;;;;;19.67;11.95;;;11.60;98.30;;;;;;5073650;28;20036;-81
2022/04/23 02:23:32;;;;;;;17.65;11.18;;;11.50;98.50;;;;;;5072008;28;20025;-81
2022/04/23 02:25:58;;;;;;;19.98;11.70;;;11.50;98.60;;;;;;5077051;28;20032;-81
2022/04/23 02:28:24;;;;;;;18.50;10.75;;;11.40;98.70;;;;;;5075977;28;20040;-81
2022/04/23 02:30:49;;;;;;;16.40;10.40;;;11.40;99.10;;;;;;5077634;28;20054;-81
2022/04/23 02:33:15;;;;;;;19.02;10.45;;;11.50;99.20;;;;;;5076089;28;20112;-81
2022/04/23 02:35:41;;;;;;;20.88;11.25;;;11.40;99.20;;;;;;5076534;28;20059;-82
2022/04/23 02:38:07;;;;;;;18.73;11.02;;;11.40;99.20;;;;;;5076321;28;20025;-84
2022/04/23 02:40:34;;;;;;;18.50;11.20;;;11.40;99.40;;;;;;5076936;28;20027;-83
2022/04/23 02:43:03;;;;;;;18.08;11.15;;;11.30;99.60;;;;;;5075978;28;20020;-84
2022/04/23 02:45:29;;;;;;;18.35;10.93;;;11.30;99.60;;;;;;5075563;28;20021;-83
2022/04/23 02:47:55;;;;;;;17.92;11.20;;;11.30;99.70;;;;;;5076932;28;20047;-84
2022/04/23 02:50:31;;;;;;;18.58;11.25;;;11.30;99.80;;;;;;5075087;28;20481;-84
2022/04/23 02:52:58;;;;;;;19.67;11.70;;;11.20;99.90;;;;;;5076401;28;20024;-84
2022/04/23 02:55:25;;;;;;;17.35;11.10;;;11.30;99.90;;;;;;5075114;28;20079;-83
2022/04/23 02:57:51;;;;;;;18.25;11.00;;;11.20;99.90;;;;;;5075556;28;20045;-83
2022/04/23 03:00:17;;;;;;;21.02;11.30;;;11.20;99.90;;;;;;5075999;28;20032;-81
2022/04/23 03:02:44;;;;;;;19.13;11.00;;;11.20;99.90;;;;;;5075692;28;20466;-81
2022/04/23 03:05:11;;;;;;;19.13;11.07;;;11.10;99.90;;;;;;5075921;28;20024;-81
2022/04/23 03:07:37;;;;;;;19.15;10.60;;;11.10;99.90;;;;;;5075584;28;20040;-82
2022/04/23 03:10:04;;;;;;;19.25;11.15;;;11.00;99.90;;;;;;5076749;28;20052;-81
2022/04/23 03:12:30;;;;;;;19.48;11.43;;;11.00;99.90;;;;;;5076410;28;20032;-81
2022/04/23 03:14:56;;;;;;;17.25;10.57;;;11.00;99.90;;;;;;5075795;28;20033;-81
2022/04/23 03:17:22;;;;;;;18.27;10.80;;;11.10;99.90;;;;;;5075534;28;20064;-82
2022/04/23 03:19:48;;;;;;;19.30;11.05;;;11.00;99.90;;;;;;5075257;28;20031;-81
2022/04/23 03:22:17;;;;;;;19.70;10.45;;;11.00;99.90;;;;;;5075307;28;20017;-80
2022/04/23 03:24:44;;;;;;;18.88;11.27;;;11.00;99.90;;;;;;5075305;28;20024;-81
2022/04/23 03:27:10;;;;;;;17.92;11.00;;;11.00;99.90;;;;;;5078838;28;20064;-81
2022/04/23 03:29:36;;;;;;;17.73;10.10;;;10.90;99.90;;;;;;5081075;28;20122;-80
2022/04/23 03:32:02;;;;;;;18.88;10.68;;;10.90;99.90;;;;;;5085186;28;20058;-81
2022/04/23 03:34:27;;;;;;;18.63;11.00;;;10.90;99.90;;;;;;5098411;28;20028;-81
2022/04/23 03:36:56;;;;;;;17.25;10.25;;;10.90;99.90;;;;;;5095435;28;20032;-82
2022/04/23 03:39:21;;;;;;;17.50;11.32;;;10.90;99.90;;;;;;5095647;28;20052;-81
2022/04/23 03:41:47;;;;;;;18.05;10.77;;;10.90;99.90;;;;;;5095144;28;20082;-82
2022/04/23 03:44:12;;;;;;;17.52;10.98;;;10.80;99.90;;;;;;5096175;28;20449;-82
2022/04/23 03:46:38;;;;;;;15.75;10.38;;;10.90;99.90;;;;;;5095617;28;20035;-82
2022/04/23 03:49:04;;;;;;;16.58;10.50;;;10.80;99.90;;;;;;5097039;28;20027;-82
2022/04/23 03:51:29;;;;;;;17.30;10.35;;;10.80;99.90;;;;;;5094632;28;20066;-82
2022/04/23 03:53:55;;;;;;;15.90;10.32;;;10.80;99.90;;;;;;5094938;28;20020;-82
2022/04/23 03:56:21;;;;;;;17.08;10.82;;;10.70;99.90;;;;;;5094690;28;20036;-82
2022/04/23 03:58:47;;;;;;;17.40;10.10;;;10.70;99.90;;;;;;5095047;28;20067;-82
2022/04/23 04:01:12;;;;;;;18.70;10.50;;;10.70;99.90;;;;;;5095066;28;20431;-82
2022/04/23 04:03:38;;;;;;;17.60;10.75;;;10.70;99.90;;;;;;5094158;28;20036;-82
2022/04/23 04:06:03;;;;;;;17.50;10.77;;;10.70;99.90;;;;;;5094611;28;20058;-83
2022/04/23 04:08:29;;;;;;;16.70;10.10;;;10.70;99.90;;;;;;5093929;28;20024;-82
2022/04/23 04:10:54;;;;;;;19.75;10.13;;;10.60;99.90;;;;;;5095235;28;20027;-83
2022/04/23 04:13:20;;;;;;;19.23;10.38;;;10.60;99.90;;;;;;5094399;28;20400;-82
2022/04/23 04:15:47;;;;;;;19.33;9.98;;;10.60;99.90;;;;;;5095938;28;20028;-83
2022/04/23 04:18:13;;;;;;;17.23;11.30;;;10.60;99.90;;;;;;5094958;28;20031;-83
2022/04/23 04:20:40;;;;;;;17.42;10.63;;;10.50;99.90;;;;;;5094386;28;20058;-83
2022/04/23 04:23:08;;;;;;;16.33;10.23;;;10.50;99.90;;;;;;5094639;28;20047;-83
2022/04/23 04:25:35;;;;;;;17.30;10.55;;;10.50;99.90;;;;;;5094173;28;20024;-83
2022/04/23 04:28:01;;;;;;;17.13;10.68;;;10.60;99.90;;;;;;5094314;28;20055;-82
2022/04/23 04:30:27;;;;;;;15.93;10.18;;;10.50;99.90;;;;;;5094063;28;20028;-83
2022/04/23 04:32:52;;;;;;;17.73;10.30;;;10.50;99.90;;;;;;5094482;28;20034;-83
2022/04/23 04:35:18;;;;;;;16.92;10.63;;;10.50;99.90;;;;;;5094227;28;20020;-83
2022/04/23 04:37:44;;;;;;;20.20;11.80;;;10.50;99.90;;;;;;5093817;28;20480;-81
2022/04/23 04:40:11;;;;;;;18.05;11.57;;;10.60;99.90;;;;;;5093786;28;20087;-81
2022/04/23 04:42:37;;;;;;;16.52;10.32;;;10.60;99.90;;;;;;5093288;28;20495;-81
2022/04/23 04:45:04;;;;;;;16.00;10.18;;;10.60;99.90;;;;;;5093498;28;20020;-81
2022/04/23 04:47:29;;;;;;;15.57;10.07;;;10.60;99.90;;;;;;5093540;28;20024;-81
2022/04/23 04:49:55;;;;;;;18.27;10.60;;;10.50;99.90;;;;;;5095198;28;20457;-81
2022/04/23 04:52:21;;;;;;;19.67;10.70;;;10.60;99.90;;;;;;5094745;28;20035;-82
2022/04/23 04:54:47;;;;;;;18.48;10.95;;;10.60;99.90;;;;;;5093968;28;20021;-82
2022/04/23 04:57:13;;;;;;;17.13;10.20;;;10.60;99.90;;;;;;5093727;28;20052;-83
2022/04/23 04:59:39;;;;;;;18.98;10.82;;;10.60;99.90;;;;;;5093439;28;20028;-83
2022/04/23 05:02:05;;;;;;;16.10;10.52;;;10.60;99.90;;;;;;5093731;28;20469;-82
2022/04/23 05:04:31;;;;;;;17.00;10.15;;;10.60;99.90;;;;;;5093499;28;20042;-82
2022/04/23 05:06:57;;;;;;;20.02;10.43;;;10.60;99.90;;;;;;5094206;28;20046;-81
2022/04/23 05:09:23;;;;;;;15.95;10.07;;;10.60;99.90;;;;;;5093022;28;20021;-82
2022/04/23 05:11:48;;;;;;;18.42;10.40;;;10.60;99.90;;;;;;5094520;28;20035;-81
2022/04/23 05:14:16;;;;;;;15.55;10.00;;;10.60;99.90;;;;;;5093403;28;20073;-81
2022/04/23 05:16:42;;;;;;;16.35;10.07;;;10.70;99.90;;;;;;5092495;28;20165;-80
2022/04/23 05:19:08;;;;;;;15.50;9.60;;;10.70;99.90;;;;;;5093309;28;20436;-80
2022/04/23 05:21:34;;;;;;;15.82;10.02;;;10.70;99.90;;;;;;5093171;28;20035;-80
2022/04/23 05:23:59;;;;;;;17.75;9.80;;;10.70;99.90;;;;;;5094412;28;20374;-80
2022/04/23 05:26:25;;;;;;;16.75;9.57;;;10.70;99.90;;;;;;5092567;28;20170;-79
2022/04/23 05:28:50;;;;;;;14.40;9.07;;;10.80;99.90;;;;;;5092810;28;20036;-79
2022/04/23 05:31:16;;;;;;;14.80;9.40;;;10.80;99.90;;;;;;5092885;28;20465;-81
2022/04/23 05:33:42;;;;;;;14.55;9.30;;;10.80;99.90;;;;;;5093252;28;20099;-80
2022/04/23 05:36:08;;;;;;;15.38;8.57;;;10.80;99.90;;;;;;5093110;28;20032;-81
2022/04/23 05:38:37;;;;;;;17.00;10.38;;;10.90;99.90;;;;;;5092579;28;20036;-81
2022/04/23 05:41:03;;;;;;;13.50;8.38;;;10.90;99.90;;;;;;5093393;28;20035;-81
2022/04/23 05:43:29;;;;;;;16.05;9.05;;;11.00;99.90;;;;;;5092698;28;20025;-81
2022/04/23 05:45:57;;;;;;;14.82;8.93;;;11.00;99.90;;;;;;5093107;28;20030;-81
2022/04/23 05:48:23;;;;;;;13.90;8.82;;;11.10;99.90;;;;;;5093740;28;20059;-81
2022/04/23 05:50:49;;;;;;;13.90;8.80;;;11.10;99.90;;;;;;5093639;28;20430;-82
2022/04/23 05:53:15;;;;;;;12.77;8.70;;;11.10;99.90;;;;;;5092700;28;20035;-82
2022/04/23 05:55:40;;;;;;;14.13;8.15;;;11.10;99.90;;;;;;5091905;28;20028;-82
2022/04/23 05:58:06;;;;;;;11.15;7.63;;;11.10;99.90;;;;;;5093054;28;20051;-82
2022/04/23 06:00:32;;;;;;;13.82;8.82;;;11.20;99.90;;;;;;5096480;28;20055;-80
2022/04/23 06:02:57;;;;;;;12.95;8.18;;;11.20;99.90;;;;;;5096806;28;20024;-81
2022/04/23 06:05:23;;;;;;;12.57;7.80;;;11.20;99.90;;;;;;5096484;28;20035;-80
2022/04/23 06:07:49;;;;;;;11.77;7.68;;;11.30;99.90;;;;;;5096278;28;20068;-81
2022/04/23 06:10:14;;;;;;;13.77;8.27;;;11.30;99.90;;;;;;5097336;28;20042;-81
2022/04/23 06:12:40;;;;;;;13.30;8.07;;;11.30;99.90;;;;;;5096484;28;20024;-82
2022/04/23 06:15:06;;;;;;;13.07;8.65;;;11.40;99.90;;;;;;5096814;28;20031;-82
2022/04/23 06:17:32;;;;;;;11.77;7.72;;;11.40;99.90;;;;;;5096349;28;20089;-81
2022/04/23 06:20:00;;;;;;;14.05;8.27;;;11.40;99.90;;;;;;5096597;28;20024;-82
2022/04/23 06:22:26;;;;;;;11.68;8.30;;;11.40;99.90;;;;;;5096356;28;20081;-84
2022/04/23 06:24:51;;;;;;;12.40;7.97;;;11.40;99.90;;;;;;5097752;28;20036;-82
2022/04/23 06:27:17;;;;;;;12.20;7.85;;;11.50;99.90;;;;;;5096553;28;20082;-82
2022/04/23 06:29:43;;;;;;;12.27;7.75;;;11.60;99.90;;;;;;5095763;28;20038;-82
2022/04/23 06:32:10;;;;;;;11.68;7.43;;;11.60;99.90;;;;;;5096901;28;20115;-83
2022/04/23 06:34:37;;;;;;;12.90;7.75;;;11.70;99.90;;;;;;5096328;28;20021;-82
2022/04/23 06:37:06;;;;;;;12.48;7.47;;;11.80;99.90;;;;;;5097436;28;20036;-83
2022/04/23 06:39:32;;;;;;;12.75;8.07;;;11.80;99.90;;;;;;5096754;28;20039;-84
2022/04/23 06:41:58;;;;;;;14.18;8.65;;;11.80;99.90;;;;;;5096583;28;20123;-84
2022/04/23 06:44:24;;;;;;;11.02;7.45;;;11.90;99.90;;;;;;5096204;28;20089;-83
2022/04/23 06:46:50;;;;;;;24.42;12.43;;;11.90;99.90;;;;;;5095944;28;20036;-84
2022/04/23 06:49:15;;;;;;;11.75;8.02;;;12.00;99.90;;;;;;5096029;28;20031;-80
2022/04/23 06:51:41;;;;;;;11.80;7.32;;;12.10;99.90;;;;;;5095681;28;20380;-84
2022/04/23 06:54:10;;;;;;;15.43;8.15;;;12.10;99.90;;;;;;5097489;28;20024;-83
2022/04/23 06:56:37;;;;;;;10.85;7.15;;;12.10;99.90;;;;;;5096623;28;20112;-82
2022/04/23 06:59:04;;;;;;;14.38;8.30;;;12.10;99.90;;;;;;5095460;28;20048;-83
2022/04/23 07:01:29;;;;;;;10.88;6.35;;;12.20;99.90;;;;;;5096438;28;20376;-82
2022/04/23 07:03:55;;;;;;;8.07;5.28;;;12.20;99.90;;;;;;5096286;28;20038;-82
2022/04/23 07:06:20;;;;;;;12.90;7.03;;;12.20;99.90;;;;;;5095991;28;20039;-83
2022/04/23 07:08:46;;;;;;;12.63;7.30;;;12.30;99.90;;;;;;5094801;28;20028;-83
2022/04/23 07:11:12;;;;;;;8.48;5.57;;;12.30;99.90;;;;;;5094919;28;20020;-83
2022/04/23 07:13:38;;;;;;;7.70;4.93;;;12.40;99.90;;;;;;5095307;28;20519;-82
2022/04/23 07:16:09;;;;;;;9.35;4.78;;;12.40;99.90;;;;;;5095083;28;20044;-82
2022/04/23 07:18:39;;;;;;;9.38;4.93;;;12.50;99.90;;;;;;5094944;28;20026;-80
2022/04/23 07:21:05;;;;;;;7.10;4.30;;;12.50;99.90;;;;;;5094873;28;20040;-83
2022/04/23 07:26:14;;;;;;;7.50;4.78;;;12.60;99.90;;;;;;5095837;28;20089;-85
2022/04/23 07:28:40;;;;;;;7.82;5.10;;;12.70;99.90;;;;;;5095104;28;20028;-85
2022/04/23 07:31:06;;;;;;;6.55;4.18;;;12.80;99.90;;;;;;5095079;28;20024;-85
2022/04/23 07:39:00;;;;;;;7.05;4.90;;;13.00;99.90;;;;;;5096475;28;20535;-86
2022/04/23 07:41:27;;;;;;;8.13;4.68;;;13.00;99.90;;;;;;5091751;28;20115;-88
2022/04/23 07:43:53;;;;;;;7.10;4.47;;;13.00;99.90;;;;;;5095399;28;20024;-87
2022/04/23 07:46:19;;;;;;;7.20;4.75;;;13.10;99.90;;;;;;5096098;28;20028;-85
2022/04/23 07:48:44;;;;;;;6.82;4.70;;;13.10;99.90;;;;;;5093809;28;20461;-88
2022/04/23 07:51:10;;;;;;;7.50;4.45;;;13.10;99.90;;;;;;5094487;28;20035;-87
2022/04/23 07:53:35;;;;;;;6.43;4.32;;;13.20;99.90;;;;;;5093429;28;20516;-90
2022/04/23 07:56:01;;;;;;;5.85;4.10;;;13.20;99.80;;;;;;5094330;28;20047;-92
2022/04/23 07:58:27;;;;;;;7.20;4.25;;;13.30;99.90;;;;;;5095398;28;20048;-91
2022/04/23 08:00:52;;;;;;;5.60;3.75;;;13.30;99.80;;;;;;5093924;28;20118;-90
2022/04/23 08:03:18;;;;;;;5.57;3.45;;;13.40;99.90;;;;;;5094798;28;20506;-91
2022/04/23 08:05:43;;;;;;;5.97;3.45;;;13.50;99.50;;;;;;5092770;28;20036;-91
2022/04/23 08:08:09;;;;;;;4.65;3.50;;;13.50;99.80;;;;;;5095197;28;20461;-92
2022/04/23 08:10:35;;;;;;;6.10;3.78;;;13.60;99.40;;;;;;5093572;28;20073;-89
2022/04/23 08:13:01;;;;;;;4.82;3.63;;;13.60;99.30;;;;;;5094898;28;20111;-91
2022/04/23 08:15:26;;;;;;;4.30;3.40;;;13.60;99.20;;;;;;5093291;28;20036;-82
2022/04/23 08:17:53;;;;;;;5.15;3.13;;;13.70;99.20;;;;;;5093874;28;20040;-83
2022/04/23 08:20:19;;;;;;;6.63;3.85;;;13.80;99.00;;;;;;5094169;28;20081;-83
2022/04/23 08:22:44;;;;;;;4.28;3.20;;;13.80;98.90;;;;;;5092138;28;20020;-81
2022/04/23 08:25:10;;;;;;;6.03;3.78;;;13.90;99.10;;;;;;5093184;28;20024;-80
2022/04/23 08:30:50;;;;;;;3.88;3.03;;;14.00;98.40;;;;;;5080337;28;20086;-80
2022/04/23 08:33:15;;;;;;;4.82;3.53;;;14.10;98.50;;;;;;5092872;28;20024;-80
2022/04/23 08:35:41;;;;;;;5.97;3.30;;;14.20;98.60;;;;;;5090136;28;20119;-80
2022/04/23 08:38:08;;;;;;;5.57;3.50;;;14.20;98.10;;;;;;5093373;28;20072;-80
2022/04/23 08:40:43;;;;;;;4.82;3.33;;;14.20;98.00;;;;;;5092513;28;20024;-81
2022/04/23 08:43:08;;;;;;;6.22;3.80;;;14.20;97.50;;;;;;5093348;28;20062;-81
2022/04/23 08:45:38;;;;;;;4.10;3.10;;;14.20;97.90;;;;;;5092282;28;20032;-80
2022/04/23 08:48:08;;;;;;;4.78;3.28;;;14.30;97.80;;;;;;5076649;28;20046;-80
2022/04/23 08:50:37;;;;;;;4.20;3.05;;;14.30;97.60;;;;;;5092596;28;20071;-80
2022/04/23 08:53:08;;;;;;;5.80;3.40;;;14.40;97.60;;;;;;5094713;28;20039;-79
2022/04/23 08:55:34;;;;;;;4.20;3.00;;;14.50;97.00;;;;;;5092752;28;20024;-79
2022/04/23 08:58:00;;;;;;;5.40;3.60;;;14.50;96.90;;;;;;5093425;28;20051;-78
2022/04/23 09:00:26;;;;;;;3.53;2.78;;;14.60;97.00;;;;;;5093032;28;20028;-78
2022/04/23 09:02:52;;;;;;;4.38;3.00;;;14.70;96.70;;;;;;5093570;28;20042;-81
2022/04/23 09:05:19;;;;;;;4.75;3.10;;;14.70;97.00;;;;;;5092317;28;20024;-80
2022/04/23 09:07:56;;;;;;;3.92;2.92;;;14.90;97.00;;;;;;5092087;28;20028;-78
2022/04/23 09:10:57;;;;;;;4.15;2.95;;;15.00;96.30;;;;;;5093913;28;20031;-78
2022/04/23 09:13:27;;;;;;;3.75;2.42;;;15.00;96.40;;;;;;5092928;28;20115;-78
2022/04/23 09:24:14;;;;;;;4.35;2.20;;;15.40;95.30;;;;;;5078340;28;20062;-80
2022/04/23 09:26:41;;;;;;;5.25;2.42;;;15.40;95.30;;;;;;5092926;28;20059;-79
2022/04/23 09:29:18;;;;;;;4.35;2.60;;;15.50;95.20;;;;;;5092749;28;20024;-80
2022/04/23 09:31:44;;;;;;;2.30;1.95;;;15.50;94.90;;;;;;5092277;28;20035;-80
2022/04/23 09:34:23;;;;;;;3.47;2.20;;;15.60;95.00;;;;;;5092700;28;20024;-80
2022/04/23 09:36:54;;;;;;;2.88;2.35;;;15.70;95.20;;;;;;5082288;28;20071;-78
2022/04/23 09:39:31;;;;;;;41.67;4.25;;;15.80;94.70;;;;;;5093626;28;20047;-80
2022/04/23 09:42:12;;;;;;;2.72;2.10;;;15.90;94.60;;;;;;5091901;28;20032;-79
2022/04/23 09:44:38;;;;;;;3.47;1.90;;;16.00;94.60;;;;;;5091455;28;20098;-80
2022/04/23 09:47:04;;;;;;;4.03;2.13;;;16.10;93.40;;;;;;5091805;28;20032;-80
2022/04/23 09:49:31;;;;;;;3.33;2.10;;;16.10;93.10;;;;;;5092346;28;20020;-82
2022/04/23 09:52:04;;;;;;;3.03;2.00;;;16.10;92.90;;;;;;5091621;28;20032;-80
2022/04/23 09:54:34;;;;;;;3.38;1.95;;;16.20;92.90;;;;;;5092859;28;20024;-84
2022/04/23 09:57:00;;;;;;;2.03;1.70;;;16.20;92.70;;;;;;5092911;28;20040;-80
2022/04/23 09:59:26;;;;;;;3.42;2.25;;;16.30;92.70;;;;;;5093440;28;20028;-80
2022/04/23 10:01:54;;;;;;;2.67;2.05;;;16.30;92.10;;;;;;5089467;28;20220;-80
2022/04/23 10:04:25;;;;;;;2.20;1.80;;;16.40;92.50;;;;;;5094341;28;20024;-83
2022/04/23 10:06:52;;;;;;;4.07;2.37;;;16.50;91.90;;;;;;5092413;28;20035;-79
2022/04/23 10:09:21;;;;;;;4.38;2.40;;;16.60;91.40;;;;;;5094583;28;20261;-80
2022/04/23 10:11:50;;;;;;;6.65;2.30;;;16.60;91.80;;;;;;5095267;28;20024;-79
2022/04/23 10:14:19;;;;;;;2.15;1.92;;;16.50;91.30;;;;;;5097401;28;20056;-80
2022/04/23 10:16:48;;;;;;;2.50;2.20;;;16.60;91.20;;;;;;5093956;28;20422;-81
2022/04/23 10:19:15;;;;;;;5.82;2.13;;;16.60;91.50;;;;;;5075723;28;20473;-80
2022/04/23 10:22:25;;;;;;;2.80;1.80;;;16.60;91.30;;;;;;5082878;28;20024;-84
2022/04/23 10:25:02;;;;;;;2.25;1.80;;;16.70;91.20;;;;;;5095932;28;20016;-78
2022/04/23 10:27:28;;;;;;;2.42;2.00;;;16.70;91.30;;;;;;5092880;28;20025;-81
2022/04/23 10:30:02;;;;;;;2.40;1.98;;;16.80;91.10;;;;;;5094024;28;20036;-83
2022/04/23 10:32:38;;;;;;;2.65;2.08;;;16.90;90.10;;;;;;5099827;28;20016;-86
2022/04/23 10:35:24;;;;;;;2.10;1.70;;;16.80;90.40;;;;;;5100313;28;20023;-81
2022/04/23 10:37:49;;;;;;;3.67;1.80;;;16.70;90.40;;;;;;5094898;28;20051;-79
2022/04/23 10:40:17;;;;;;;2.15;1.60;;;16.70;90.40;;;;;;5095687;28;20377;-81
2022/04/23 10:43:12;;;;;;;2.42;1.90;;;16.80;90.30;;;;;;5091669;28;20020;-79
2022/04/23 10:45:40;;;;;;;2.05;1.85;;;16.70;88.80;;;;;;5083295;28;20024;-81
2022/04/23 10:48:44;;;;;;;2.80;1.70;;;16.70;90.60;;;;;;5100991;28;20024;-83
2022/04/23 10:51:12;;;;;;;2.38;1.45;;;16.70;89.70;;;;;;5044209;28;20036;-81
2022/04/23 10:53:37;;;;;;;2.03;1.48;;;16.70;89.10;;;;;;5034827;28;20040;-77
2022/04/23 10:56:15;;;;;;;2.30;1.75;;;16.60;89.40;;;;;;5048449;28;20029;-85
2022/04/23 10:58:41;;;;;;;1.83;1.60;;;16.70;89.40;;;;;;5025766;28;20050;-85
2022/04/23 11:01:24;;;;;;;4.13;2.03;;;16.70;90.30;;;;;;5054208;28;20025;-78
2022/04/23 11:03:56;;;;;;;2.58;1.80;;;16.60;90.10;;;;;;5027663;28;20029;-75
2022/04/23 11:12:22;;;;;;;3.20;1.80;;;16.80;88.30;;;;;;5039849;28;20136;-80
2022/04/23 11:14:51;;;;;;;2.33;2.13;;;16.90;88.00;;;;;;5036745;28;20036;-81
2022/04/23 11:17:21;;;;;;;2.88;2.65;;;16.90;88.70;;;;;;5031413;28;20036;-78
2022/04/23 11:19:54;;;;;;;3.28;2.58;;;16.70;88.80;;;;;;5034718;28;20506;-78
2022/04/23 11:22:20;;;;;;;2.80;2.55;;;16.70;87.90;;;;;;5036532;28;20032;-79
2022/04/23 11:24:50;;;;;;;2.60;2.40;;;16.60;87.60;;;;;;5055705;28;20085;-80
2022/04/23 11:27:35;;;;;;;2.60;2.38;;;16.70;88.80;;;;;;5077826;28;20028;-78
2022/04/23 11:30:02;;;;;;;2.92;2.42;;;16.80;88.30;;;;;;5086945;28;20085;-79
2022/04/23 11:32:30;;;;;;;2.65;2.45;;;16.90;88.00;;;;;;5097488;28;20485;-79
2022/04/23 11:35:06;;;;;;;2.47;2.28;;;16.80;88.20;;;;;;5097291;28;20035;-79
2022/04/23 11:37:39;;;;;;;2.80;2.40;;;16.80;88.00;;;;;;5097703;28;20457;-80
2022/04/23 11:40:06;;;;;;;3.50;3.15;;;16.80;87.20;;;;;;5098042;28;20024;-76
2022/04/23 11:42:43;;;;;;;2.80;2.50;;;16.90;87.30;;;;;;5094719;28;20131;-78
2022/04/23 11:45:11;;;;;;;3.33;2.20;;;17.00;85.80;;;;;;5095046;28;20030;-76
2022/04/23 11:47:37;;;;;;;2.63;2.00;;;17.00;86.50;;;;;;5094391;28;20388;-77
2022/04/23 11:50:13;;;;;;;3.80;2.10;;;17.20;85.70;;;;;;5094901;28;20107;-77
2022/04/23 11:52:40;;;;;;;2.55;2.13;;;17.30;85.30;;;;;;5094900;28;20090;-76
2022/04/23 11:55:08;;;;;;;3.25;2.03;;;17.50;85.50;;;;;;5095460;28;20031;-78
2022/04/23 11:57:35;;;;;;;2.50;2.20;;;17.50;83.30;;;;;;5095335;28;20477;-77
2022/04/23 12:00:02;;;;;;;2.22;1.90;;;17.60;82.90;;;;;;5094458;28;20101;-77
2022/04/23 12:02:29;;;;;;;3.13;2.22;;;17.50;83.20;;;;;;5094302;28;20052;-82
2022/04/23 12:04:57;;;;;;;2.58;1.77;;;17.30;83.20;;;;;;5090729;28;20036;-81
2022/04/23 12:07:24;;;;;;;4.28;1.77;;;17.40;82.60;;;;;;5094901;28;20036;-93
2022/04/23 12:09:55;;;;;;;2.22;1.92;;;17.50;83.20;;;;;;5094726;28;20020;-83
2022/04/23 12:12:31;;;;;;;4.22;1.98;;;17.50;81.70;;;;;;5095589;28;20032;-83
2022/04/23 12:14:59;;;;;;;1.90;1.65;;;17.70;82.50;;;;;;5094465;28;20028;-82
2022/04/23 12:17:29;;;;;;;2.53;2.17;;;17.80;81.50;;;;;;5093799;28;20028;-77
2022/04/23 12:20:09;;;;;;;2.65;2.08;;;17.90;80.60;;;;;;5093910;28;20101;-80
2022/04/23 12:22:34;;;;;;;2.03;1.73;;;17.90;81.40;;;;;;5093743;28;20025;-79
2022/04/23 12:25:12;;;;;;;2.47;2.28;;;17.90;80.60;;;;;;5091687;28;20024;-79
2022/04/23 12:27:58;;;;;;;2.63;1.73;;;17.80;79.80;;;;;;5095204;28;20035;-78
2022/04/23 12:42:12;;;;;;;2.03;1.83;;;18.00;80.70;;;;;;5093125;28;20545;-78
2022/04/23 12:44:42;;;;;;;2.30;2.08;;;18.10;79.20;;;;;;5094664;28;20080;-82
2022/04/23 12:47:10;;;;;;;3.60;2.50;;;18.20;78.40;;;;;;5092528;28;20174;-80
2022/04/23 12:49:54;;;;;;;4.10;2.58;;;18.30;78.20;;;;;;5092409;28;20524;-79
2022/04/23 12:52:21;;;;;;;3.47;2.40;;;18.30;77.70;;;;;;5092699;28;20028;-80
2022/04/23 12:55:25;;;;;;;3.35;2.25;;;18.20;78.20;;;;;;5092527;28;20032;-81
2022/04/23 12:58:12;;;;;;;2.45;2.15;;;18.20;78.00;;;;;;5081000;28;20048;-81
2022/04/23 13:00:42;;;;;;;3.85;2.70;;;18.10;77.60;;;;;;5093750;28;20543;-82
2022/04/23 13:03:33;;;;;;;2.83;2.55;;;18.00;78.60;;;;;;5094018;28;20043;-82
2022/04/23 13:05:59;;;;;;;4.32;2.63;;;17.90;77.80;;;;;;5092450;28;20024;-81
2022/04/23 13:11:25;;;;;;;3.55;2.40;;;17.90;77.70;;;;;;5093895;28;20067;-81
2022/04/23 13:13:55;;;;;;;3.05;2.40;;;18.10;77.60;;;;;;5092680;28;20024;-81
2022/04/23 13:16:31;;;;;;;2.42;2.20;;;18.30;77.60;;;;;;5094077;28;20082;-81
2022/04/23 13:19:03;;;;;;;3.15;2.63;;;18.30;76.00;;;;;;5094714;28;20052;-81
2022/04/23 13:21:29;;;;;;;;;;;18.40;74.10;;;;;;5093664;28;20039;-80
2022/04/23 13:23:56;;;;;;;3.78;2.80;;;18.40;74.10;;;;;;5092746;28;19904;-80